Detroit, Michigan
Traffic Map
Current Weather Conditions
Detroit, Michigan
Overcast Light Rain
Overcast
36°
Feels Like: 36°
Wind Chill: 36° Ceiling: 5000
Heat Index: 36° Visibility: 10mi
Dew Point: 30° Wind: 3mph
Humidity: 81% Direction: 130° (SE)
Pressure: 30.18in Gusts: 0mph
Raw Report DataCYQG 240400Z 13003KT 10SM -RA BKN050 OVC089 02/M01 A3018 RMK NS6AS2 SLP229
Traffic Incident Summary
Active as of:
Severity:
Category:
InformationThere was an issue retrieving the traffic information for this location. Please try a different location or try again shortly.
Advertisements
Track Severe Weather on mobile